Time;durP1;ratioP1;P1;durP2;ratioP2;P2;SDS_P1;SDS_P2;PMS_P1;PMS_P2;Temp;Humidity;BMP_temperature;BMP_pressure;BME280_temperature;BME280_humidity;BME280_pressure;Samples;Min_cycle;Max_cycle;Signal;HPM_P1;HPM_P2
2021/06/21 00:02:21;;;;;;;8.90;5.72;;;;;;;25.52;69.10;99762.63;1756242;79;20905;-78
2021/06/21 00:04:49;;;;;;;10.48;5.55;;;;;;;25.56;68.78;99755.08;1759586;79;20987;-78
2021/06/21 00:07:15;;;;;;;10.55;6.00;;;;;;;25.48;69.35;99753.41;1778670;80;21049;-78
2021/06/21 00:09:41;;;;;;;11.03;5.72;;;;;;;25.41;69.86;99754.47;1774152;80;21096;-78
2021/06/21 00:12:12;;;;;;;12.87;6.83;;;;;;;25.29;70.25;99751.72;1784086;78;25316;-78
2021/06/21 00:14:38;;;;;;;9.90;6.25;;;;;;;25.17;70.37;99743.78;1783973;80;21033;-79
2021/06/21 00:17:03;;;;;;;11.35;6.50;;;;;;;25.17;70.72;99743.78;1782114;80;20942;-80
2021/06/21 00:19:29;;;;;;;10.72;6.10;;;;;;;25.18;70.26;99738.66;1785918;77;20911;-80
2021/06/21 00:21:56;;;;;;;13.27;5.93;;;;;;;25.15;70.36;99737.84;1781134;80;20985;-79
2021/06/21 00:24:22;;;;;;;11.68;6.12;;;;;;;25.17;70.10;99727.57;1780637;80;20993;-79
2021/06/21 00:26:48;;;;;;;12.28;6.12;;;;;;;25.23;69.90;99729.22;1766568;78;20906;-79
2021/06/21 00:29:14;;;;;;;13.08;6.95;;;;;;;25.22;69.92;99727.61;1759304;79;21072;-79
2021/06/21 00:31:40;;;;;;;14.58;6.67;;;;;;;25.17;70.37;99727.05;1761904;79;21029;-78
2021/06/21 00:34:06;;;;;;;9.45;6.30;;;;;;;25.06;70.64;99727.55;1762752;79;21146;-78
2021/06/21 00:36:32;;;;;;;12.13;6.83;;;;;;;24.93;71.43;99730.70;1760706;78;20958;-79
2021/06/21 00:38:57;;;;;;;13.32;6.25;;;;;;;24.86;71.42;99722.01;1775857;78;20899;-79
2021/06/21 00:41:23;;;;;;;16.07;6.40;;;;;;;24.77;71.87;99721.70;1775241;78;20880;-79
2021/06/21 00:43:49;;;;;;;11.10;6.55;;;;;;;24.70;72.34;99720.59;1771511;80;20876;-79
2021/06/21 00:46:15;;;;;;;12.58;6.80;;;;;;;24.64;72.72;99719.45;1775387;80;21067;-79
2021/06/21 00:48:41;;;;;;;11.30;6.53;;;;;;;24.60;72.95;99717.81;1776833;78;20860;-79
2021/06/21 00:51:08;;;;;;;12.82;6.78;;;;;;;24.64;72.53;99716.23;1776904;80;21050;-79
2021/06/21 00:53:34;;;;;;;12.18;6.87;;;;;;;24.66;72.43;99710.58;1790165;78;21729;-79
2021/06/21 00:56:00;;;;;;;9.73;6.23;;;;;;;24.58;72.90;99703.78;1818056;78;21308;-79
2021/06/21 00:58:27;;;;;;;10.58;6.72;;;;;;;24.57;72.86;99708.89;1818397;78;21711;-79
2021/06/21 01:00:53;;;;;;;12.68;6.47;;;;;;;24.47;73.10;99700.16;1815256;78;21174;-79
2021/06/21 01:03:19;;;;;;;11.10;6.17;;;;;;;24.50;73.00;99702.86;1814115;78;21017;-80
2021/06/21 01:05:44;;;;;;;11.37;6.73;;;;;;;24.51;72.96;99697.75;1776847;78;22376;-79
2021/06/21 01:08:10;;;;;;;11.40;6.60;;;;;;;24.47;73.18;99696.63;1764591;79;21746;-79
2021/06/21 01:10:39;;;;;;;11.65;6.55;;;;;;;24.48;73.21;99700.97;1747298;79;21167;-79
2021/06/21 01:13:29;;;;;;;17.32;6.67;;;;;;;24.49;73.28;99697.20;1805033;78;21073;-79
2021/06/21 01:16:17;;;;;;;11.80;6.40;;;;;;;24.43;73.22;99691.49;1815261;78;21037;-80
2021/06/21 01:19:12;;;;;;;11.20;6.75;;;;;;;24.45;73.09;99690.69;1771132;78;21075;-79
2021/06/21 01:22:20;;;;;;;10.13;6.60;;;;;;;24.40;73.12;99693.36;1750501;80;21042;-78
2021/06/21 01:25:08;;;;;;;15.08;6.65;;;;;;;24.47;72.86;99695.28;1769708;78;21106;-79
2021/06/21 01:28:00;;;;;;;13.28;6.60;;;;;;;24.38;72.97;99690.92;1832596;77;21049;-79
2021/06/21 01:31:13;;;;;;;13.38;6.85;;;;;;;24.43;72.75;99688.80;1732045;80;21679;-78
2021/06/21 01:33:39;;;;;;;11.50;6.83;;;;;;;24.40;72.89;99685.27;1728927;81;21140;-78
2021/06/21 01:36:07;;;;;;;13.60;6.85;;;;;;;24.32;73.18;99683.31;1732380;80;21028;-78
2021/06/21 01:38:36;;;;;;;11.10;7.15;;;;;;;24.23;73.87;99676.77;1730064;79;21066;-79
2021/06/21 01:41:06;;;;;;;17.15;7.22;;;;;;;24.16;74.16;99681.55;1754933;80;20996;-79
2021/06/21 01:43:35;;;;;;;15.83;6.92;;;;;;;24.12;74.36;99683.97;1759343;79;21031;-79
2021/06/21 01:46:04;;;;;;;15.45;7.28;;;;;;;24.11;74.24;99677.48;1754139;80;21581;-79
2021/06/21 01:48:31;;;;;;;11.12;6.85;;;;;;;24.10;74.15;99675.84;1768266;77;21006;-79
2021/06/21 01:50:59;;;;;;;11.00;6.60;;;;;;;24.05;74.17;99680.69;1815968;77;21066;-78
2021/06/21 01:53:25;;;;;;;11.93;7.08;;;;;;;24.04;74.05;99679.59;1808659;77;21113;-79
2021/06/21 01:56:02;;;;;;;12.87;6.90;;;;;;;24.00;74.13;99680.11;1813274;77;21043;-78
2021/06/21 01:58:32;;;;;;;11.57;6.87;;;;;;;23.93;74.88;99677.34;1815838;77;21051;-78
2021/06/21 02:00:59;;;;;;;12.53;6.75;;;;;;;23.95;74.73;99673.30;1815348;77;21258;-78
2021/06/21 02:03:25;;;;;;;12.20;7.00;;;;;;;23.90;74.80;99674.61;1789020;78;21134;-79
2021/06/21 02:05:51;;;;;;;10.93;6.97;;;;;;;23.88;74.81;99676.77;1771573;79;22177;-78
2021/06/21 02:08:18;;;;;;;10.78;6.58;;;;;;;23.88;74.83;99672.72;1787146;77;20860;-78
2021/06/21 02:10:43;;;;;;;14.38;7.25;;;;;;;23.87;74.93;99673.78;1780648;77;21550;-78
2021/06/21 02:13:09;;;;;;;11.35;6.62;;;;;;;23.85;75.27;99675.92;1770409;78;20959;-80
2021/06/21 02:15:35;;;;;;;20.02;7.62;;;;;;;23.88;74.97;99671.88;1775105;80;21157;-79
2021/06/21 02:18:01;;;;;;;11.78;7.33;;;;;;;23.83;75.13;99666.71;1775804;79;27080;-79
2021/06/21 02:20:27;;;;;;;14.45;7.30;;;;;;;23.78;75.54;99677.97;1774986;80;21423;-79
2021/06/21 02:22:52;;;;;;;13.50;7.17;;;;;;;23.77;75.57;99672.29;1774635;78;20868;-79
2021/06/21 02:25:18;;;;;;;11.93;7.28;;;;;;;23.76;75.53;99670.14;1759790;80;20885;-79
2021/06/21 02:27:44;;;;;;;13.40;7.37;;;;;;;23.73;75.58;99677.39;1758976;80;21391;-79
2021/06/21 02:30:13;;;;;;;17.60;7.10;;;;;;;23.70;75.74;99678.44;1753633;81;20947;-79
2021/06/21 02:32:42;;;;;;;14.15;7.20;;;;;;;23.68;75.75;99679.21;1759339;81;21376;-80
2021/06/21 02:35:09;;;;;;;15.08;7.55;;;;;;;23.61;75.94;99670.80;1753587;78;20982;-79
2021/06/21 02:37:36;;;;;;;13.15;7.58;;;;;;;23.53;76.41;99673.95;1818196;78;20997;-79
2021/06/21 02:40:05;;;;;;;12.33;7.83;;;;;;;23.43;76.87;99671.97;1779870;78;21345;-79
2021/06/21 02:42:31;;;;;;;17.17;7.78;;;;;;;23.39;77.10;99673.53;1777301;79;21012;-80
2021/06/21 02:44:57;;;;;;;12.80;7.80;;;;;;;23.41;77.06;99676.78;1751468;79;20882;-78
2021/06/21 02:47:23;;;;;;;16.23;7.80;;;;;;;23.36;77.47;99669.20;1771804;79;20864;-78
2021/06/21 02:49:48;;;;;;;10.58;7.08;;;;;;;23.30;77.30;99667.80;1760232;79;20890;-78
2021/06/21 02:52:35;;;;;;;11.22;6.53;;;;;;;23.29;77.14;99660.77;1757606;79;21181;-79
2021/06/21 02:55:08;;;;;;;14.18;7.30;;;;;;;23.29;77.35;99664.81;1768498;77;21070;-78
2021/06/21 02:58:00;;;;;;;14.03;6.80;;;;;;;23.42;76.48;99664.95;1784234;78;21097;-79
2021/06/21 03:00:26;;;;;;;14.75;6.70;;;;;;;23.48;76.25;99671.22;1777011;80;21198;-78
2021/06/21 03:02:57;;;;;;;12.58;6.83;;;;;;;23.55;75.88;99671.80;1780504;80;21030;-78
2021/06/21 03:05:23;;;;;;;14.10;7.30;;;;;;;23.45;76.22;99674.41;1780572;80;21278;-78
2021/06/21 03:07:49;;;;;;;14.45;7.20;;;;;;;23.53;76.01;99671.80;1776849;80;21088;-78
2021/06/21 03:10:15;;;;;;;15.63;6.75;;;;;;;23.52;75.90;99669.62;1776873;78;21779;-79
2021/06/21 03:12:41;;;;;;;12.15;6.62;;;;;;;23.56;75.75;99678.84;1760193;79;20902;-79
2021/06/21 03:15:09;;;;;;;13.80;7.40;;;;;;;23.64;75.55;99677.02;1757067;80;21074;-79
2021/06/21 03:17:35;;;;;;;12.82;7.20;;;;;;;23.70;75.25;99673.86;1762370;79;21272;-79
2021/06/21 03:20:01;;;;;;;12.28;7.20;;;;;;;23.73;75.02;99670.65;1762189;79;21669;-80
2021/06/21 03:22:27;;;;;;;10.75;6.58;;;;;;;23.81;74.45;99672.87;1758623;79;25208;-79
2021/06/21 03:24:54;;;;;;;14.28;7.15;;;;;;;23.78;74.47;99671.23;1767932;79;21007;-79
2021/06/21 03:27:34;;;;;;;12.78;6.87;;;;;;;23.92;73.84;99673.01;1756466;79;21287;-80
2021/06/21 03:30:00;;;;;;;15.68;7.00;;;;;;;23.98;73.44;99668.74;1765316;78;21126;-79
2021/06/21 03:32:31;;;;;;;12.98;6.67;;;;;;;23.99;73.07;99669.03;1761464;80;21390;-79
2021/06/21 03:35:00;;;;;;;19.73;6.58;;;;;;;24.00;72.75;99673.37;1765917;80;21275;-78
2021/06/21 03:37:30;;;;;;;10.40;6.53;;;;;;;24.08;72.41;99668.55;1762935;81;21106;-78
2021/06/21 03:39:56;;;;;;;15.58;6.45;;;;;;;23.99;72.40;99673.08;1806809;78;21082;-77
2021/06/21 03:42:22;;;;;;;13.32;6.42;;;;;;;23.93;72.51;99678.15;1814014;78;21242;-77
2021/06/21 03:44:48;;;;;;;13.58;6.30;;;;;;;24.01;72.34;99676.87;1814616;78;21614;-78
2021/06/21 03:47:15;;;;;;;11.47;5.80;;;;;;;24.13;71.31;99678.02;1791535;78;20995;-78
2021/06/21 03:49:42;;;;;;;10.90;5.63;;;;;;;24.13;71.31;99678.02;1784341;80;21057;-79
2021/06/21 03:52:08;;;;;;;8.83;5.28;;;;;;;24.21;71.00;99681.61;1779005;80;21364;-79
2021/06/21 03:54:34;;;;;;;10.23;5.00;;;;;;;24.22;70.48;99685.12;1785122;80;21347;-79
2021/06/21 03:56:59;;;;;;;11.50;5.35;;;;;;;24.33;69.97;99684.11;1780196;78;20914;-83
2021/06/21 03:59:25;;;;;;;10.90;5.07;;;;;;;24.33;69.58;99686.30;1787720;77;29107;-81
2021/06/21 04:01:51;;;;;;;10.58;4.78;;;;;;;24.37;69.31;99683.88;1781071;78;21178;-79
2021/06/21 04:04:17;;;;;;;10.48;4.67;;;;;;;24.39;69.08;99683.08;1749239;79;20961;-79
2021/06/21 04:06:43;;;;;;;11.38;4.92;;;;;;;24.43;68.96;99680.70;1755727;79;21287;-77
2021/06/21 04:09:08;;;;;;;13.00;5.03;;;;;;;24.40;68.82;99686.61;1772890;77;20955;-79
2021/06/21 04:11:36;;;;;;;11.40;5.10;;;;;;;24.46;68.57;99680.17;1746206;79;20902;-79
2021/06/21 04:14:02;;;;;;;9.08;4.45;;;;;;;24.50;68.56;99681.27;1764580;79;21525;-78
2021/06/21 04:16:28;;;;;;;12.40;5.00;;;;;;;24.54;68.19;99687.78;1746605;79;21749;-77
2021/06/21 04:18:53;;;;;;;10.43;4.45;;;;;;;24.54;68.20;99683.19;1770660;79;22078;-79
2021/06/21 04:21:22;;;;;;;9.78;4.58;;;;;;;24.61;67.80;99688.41;1764980;79;21634;-76
2021/06/21 04:23:47;;;;;;;10.23;4.90;;;;;;;24.56;67.96;99688.33;1754477;79;21107;-78
2021/06/21 04:26:13;;;;;;;8.13;4.17;;;;;;;24.58;67.90;99691.62;1772008;79;21001;-79
2021/06/21 04:28:39;;;;;;;11.85;5.00;;;;;;;24.60;67.30;99684.07;1761614;79;21001;-78
2021/06/21 04:31:05;;;;;;;10.20;4.65;;;;;;;24.61;67.49;99685.70;1746028;79;21158;-79
2021/06/21 04:33:30;;;;;;;10.98;4.00;;;;;;;24.66;67.14;99693.83;1802271;77;21927;-79
2021/06/21 04:35:56;;;;;;;10.25;4.00;;;;;;;24.83;66.97;99700.95;1817249;76;20910;-79
2021/06/21 04:38:23;;;;;;;11.43;4.37;;;;;;;24.89;66.71;99694.48;1809938;77;21185;-78
2021/06/21 04:40:49;;;;;;;8.48;4.25;;;;;;;24.87;66.80;99693.94;1817765;78;21037;-78
2021/06/21 04:43:15;;;;;;;10.63;4.00;;;;;;;24.84;66.77;99691.76;1778875;78;21131;-78
2021/06/21 04:45:41;;;;;;;7.87;4.08;;;;;;;24.95;66.59;99698.83;1761728;81;21042;-78
2021/06/21 04:48:08;;;;;;;10.30;4.45;;;;;;;24.95;66.51;99697.48;1762144;80;25347;-77
2021/06/21 04:50:36;;;;;;;7.33;3.77;;;;;;;25.04;66.55;99703.20;1758731;80;21012;-83
2021/06/21 04:53:01;;;;;;;9.60;3.83;;;;;;;25.05;66.51;99693.48;1763211;80;21350;-80
2021/06/21 04:55:27;;;;;;;10.95;4.22;;;;;;;25.16;66.43;99700.30;1767085;80;21571;-79
2021/06/21 04:57:53;;;;;;;10.68;3.98;;;;;;;25.28;66.25;99694.13;1763228;80;22158;-79
2021/06/21 05:00:22;;;;;;;11.33;4.15;;;;;;;25.36;66.20;99696.34;1806084;77;20868;-82
2021/06/21 05:02:48;;;;;;;9.65;3.95;;;;;;;25.44;66.03;99700.42;1805398;77;20996;-81
2021/06/21 05:05:14;;;;;;;8.43;3.80;;;;;;;25.50;65.97;99687.73;1778516;80;21039;-77
2021/06/21 05:07:40;;;;;;;11.93;3.92;;;;;;;25.55;65.85;99696.66;1734790;78;21053;-78
2021/06/21 05:10:08;;;;;;;8.28;3.70;;;;;;;25.65;65.50;99693.16;1732877;80;21573;-81
2021/06/21 05:12:34;;;;;;;12.70;4.00;;;;;;;25.66;65.44;99696.69;1728114;81;21262;-75
2021/06/21 05:14:59;;;;;;;9.05;3.60;;;;;;;25.74;65.20;99696.95;1778247;77;20872;-77
2021/06/21 05:17:26;;;;;;;11.57;4.35;;;;;;;25.82;64.94;99703.73;1812708;77;20966;-75
2021/06/21 05:19:52;;;;;;;13.53;3.95;;;;;;;25.82;64.81;99711.05;1789435;77;27171;-76
2021/06/21 05:22:18;;;;;;;9.20;3.73;;;;;;;25.86;64.64;99713.50;1769823;78;20990;-78
2021/06/21 05:24:44;;;;;;;11.80;3.80;;;;;;;25.93;64.56;99715.38;1771128;80;20899;-79
2021/06/21 05:27:10;;;;;;;10.80;3.83;;;;;;;25.97;64.46;99711.06;1777278;80;20941;-77
2021/06/21 05:29:35;;;;;;;17.23;4.30;;;;;;;26.02;64.23;99717.05;1777124;80;20879;-79
2021/06/21 05:32:02;;;;;;;18.50;4.53;;;;;;;25.93;64.50;99719.44;1771600;80;21031;-77
2021/06/21 05:34:28;;;;;;;13.45;4.25;;;;;;;26.03;64.24;99726.25;1757016;78;21785;-76
2021/06/21 05:36:54;;;;;;;13.70;4.65;;;;;;;26.13;64.29;99722.21;1746182;79;21060;-78
2021/06/21 05:39:20;;;;;;;12.03;3.65;;;;;;;26.21;64.24;99718.16;1747568;79;21041;-80
2021/06/21 05:41:45;;;;;;;16.07;4.28;;;;;;;26.21;64.24;99718.16;1764664;79;20852;-80
2021/06/21 05:44:11;;;;;;;13.00;3.87;;;;;;;26.32;63.90;99714.91;1768069;79;21396;-80
2021/06/21 05:46:37;;;;;;;14.17;3.97;;;;;;;26.32;63.96;99707.59;1746812;79;20955;-81
2021/06/21 05:49:03;;;;;;;15.70;3.98;;;;;;;26.42;64.01;99714.88;1751074;81;20884;-80
2021/06/21 05:51:28;;;;;;;15.50;4.35;;;;;;;26.50;63.81;99716.23;1756849;81;22001;-80
2021/06/21 05:53:54;;;;;;;14.95;3.60;;;;;;;26.58;63.94;99715.66;1754443;81;20873;-84
2021/06/21 05:56:20;;;;;;;14.28;4.08;;;;;;;26.71;63.46;99712.98;1766476;80;21148;-81
2021/06/21 05:58:46;;;;;;;13.48;4.05;;;;;;;26.86;62.95;99719.73;1777405;78;21159;-81
2021/06/21 06:01:11;;;;;;;16.32;3.67;;;;;;;26.97;62.47;99715.09;1816927;78;25345;-81
2021/06/21 06:03:37;;;;;;;11.70;3.65;;;;;;;27.08;62.26;99718.58;1810852;76;21102;-81
2021/06/21 06:06:03;;;;;;;14.85;3.77;;;;;;;27.13;62.19;99720.42;1776070;79;20958;-82
2021/06/21 06:08:29;;;;;;;11.33;4.03;;;;;;;27.29;62.07;99722.00;1773223;80;21088;-81
2021/06/21 06:10:55;;;;;;;16.37;4.00;;;;;;;27.30;61.66;99718.73;1776357;80;20938;-82
2021/06/21 06:13:21;;;;;;;15.60;3.97;;;;;;;27.39;61.66;99711.14;1775312;79;26528;-81
2021/06/21 06:15:46;;;;;;;16.43;4.10;;;;;;;27.37;61.55;99713.86;1775891;78;27520;-83
2021/06/21 06:18:12;;;;;;;13.95;3.72;;;;;;;27.41;61.17;99708.16;1774751;78;21954;-80
2021/06/21 06:20:38;;;;;;;18.53;4.00;;;;;;;27.43;60.95;99708.68;1771918;80;25417;-82
2021/06/21 06:23:04;;;;;;;15.27;3.70;;;;;;;27.50;60.73;99720.04;1773210;80;20884;-81
2021/06/21 06:25:36;;;;;;;13.15;3.75;;;;;;;27.51;60.17;99720.84;1800947;77;21070;-82
2021/06/21 06:28:03;;;;;;;11.85;3.65;;;;;;;27.58;60.01;99722.16;1823952;77;21034;-85
2021/06/21 06:30:28;;;;;;;19.45;4.53;;;;;;;27.65;59.94;99726.46;1773657;77;21023;-80
2021/06/21 06:32:54;;;;;;;18.57;4.15;;;;;;;27.62;59.43;99721.59;1747454;79;21078;-83
2021/06/21 06:35:20;;;;;;;23.73;3.90;;;;;;;27.73;59.02;99719.08;1769115;79;21052;-80
2021/06/21 06:37:47;;;;;;;19.55;3.72;;;;;;;27.81;58.87;99711.72;1796557;78;20971;-81
2021/06/21 06:40:14;;;;;;;15.15;3.80;;;;;;;27.83;58.94;99716.31;1803930;77;21026;-77
2021/06/21 06:42:41;;;;;;;15.30;3.45;;;;;;;27.82;58.12;99709.25;1795953;78;21034;-78
2021/06/21 06:45:08;;;;;;;15.28;3.35;;;;;;;27.90;58.31;99715.42;1800052;77;21124;-82
2021/06/21 06:47:34;;;;;;;;;;;;;;;27.90;57.79;99704.57;1808970;78;21576;-80
2021/06/21 06:50:00;;;;;;;17.45;3.85;;;;;;;27.93;56.20;99710.80;1798719;78;28198;-83
2021/06/21 06:52:26;;;;;;;19.03;3.80;;;;;;;27.99;56.29;99706.18;1805180;78;21276;-83
2021/06/21 06:57:37;;;;;;;13.55;3.02;;;;;;;28.17;55.68;99708.77;1782855;78;20926;-80
2021/06/21 07:00:06;;;;;;;15.72;3.40;;;;;;;28.27;55.31;99700.52;1783344;80;20997;-80
2021/06/21 07:02:32;;;;;;;16.27;3.40;;;;;;;28.36;55.08;99699.91;1780018;78;21007;-84
2021/06/21 07:05:00;;;;;;;13.63;3.20;;;;;;;28.38;54.71;99693.64;1763760;80;20869;-80
2021/06/21 07:07:26;;;;;;;14.43;3.50;;;;;;;28.37;53.69;99698.80;1744009;78;21138;-78
2021/06/21 07:09:52;;;;;;;13.60;3.40;;;;;;;28.43;53.41;99699.02;1792462;78;21081;-84
2021/06/21 07:12:17;;;;;;;17.83;3.07;;;;;;;28.54;53.55;99704.63;1772950;80;26580;-80
2021/06/21 07:14:43;;;;;;;17.80;3.20;;;;;;;28.61;52.98;99704.31;1763075;79;25877;-80
2021/06/21 07:17:09;;;;;;;18.77;4.00;;;;;;;28.62;53.15;99706.74;1791920;78;20981;-80
2021/06/21 07:19:35;;;;;;;19.13;3.40;;;;;;;28.71;53.08;99697.95;1817279;78;20999;-83
2021/06/21 07:22:01;;;;;;;13.93;2.90;;;;;;;28.73;52.75;99687.59;1818163;78;27217;-81
2021/06/21 07:24:27;;;;;;;;;;;;;;;28.84;52.29;99689.13;1813361;76;21559;-82
2021/06/21 07:26:53;;;;;;;16.23;3.10;;;;;;;28.88;52.13;99684.70;1814119;78;20159;-80
2021/06/21 07:29:19;;;;;;;12.80;2.90;;;;;;;28.92;51.74;99687.11;1807005;78;21599;-82
2021/06/21 07:31:45;;;;;;;17.17;3.12;;;;;;;28.86;51.43;99692.35;1810551;78;21003;-81
2021/06/21 07:34:11;;;;;;;13.87;2.97;;;;;;;28.89;50.82;99682.26;1814042;78;21132;-81
2021/06/21 07:36:37;;;;;;;16.50;3.00;;;;;;;28.86;50.71;99680.13;1781798;78;20969;-83
2021/06/21 07:39:05;;;;;;;19.40;3.40;;;;;;;28.92;50.35;99676.24;1798941;78;21026;-81
2021/06/21 07:41:31;;;;;;;18.80;3.33;;;;;;;28.99;50.32;99678.07;1815847;76;21797;-83
2021/06/21 07:43:57;;;;;;;9.77;2.83;;;;;;;28.96;50.59;99678.66;1820280;78;21106;-82
2021/06/21 07:46:22;;;;;;;16.43;3.00;;;;;;;29.00;50.77;99678.31;1821578;77;21070;-84
2021/06/21 07:48:48;;;;;;;12.40;2.40;;;;;;;29.08;51.08;99678.77;1786811;77;20940;-79
2021/06/21 07:51:14;;;;;;;11.67;2.63;;;;;;;29.14;50.80;99677.61;1799422;77;21120;-81
2021/06/21 07:53:41;;;;;;;14.18;3.10;;;;;;;29.39;50.74;99677.84;1756031;80;21071;-80
2021/06/21 07:56:08;;;;;;;10.70;2.40;;;;;;;29.44;50.80;99674.24;1756633;80;21058;-83
2021/06/21 07:58:37;;;;;;;;;;;;;;;29.45;49.63;99682.67;1761499;80;21164;-83
2021/06/21 08:01:02;;;;;;;12.07;2.47;;;;;;;29.56;49.52;99677.33;1754564;80;20113;-81
2021/06/21 08:03:28;;;;;;;10.90;2.37;;;;;;;29.68;49.69;99677.70;1757008;81;20900;-87
2021/06/21 08:05:54;;;;;;;9.80;2.33;;;;;;;29.68;49.00;99679.05;1761222;81;21148;-81
2021/06/21 08:08:20;;;;;;;10.07;2.40;;;;;;;29.61;47.26;99674.52;1761149;81;21006;-78
2021/06/21 08:10:46;;;;;;;12.98;2.40;;;;;;;29.65;47.54;99683.73;1759992;80;22132;-79
2021/06/21 08:13:12;;;;;;;15.67;2.70;;;;;;;29.68;48.14;99672.25;1752505;80;20913;-81
2021/06/21 08:15:38;;;;;;;10.40;2.43;;;;;;;29.75;48.13;99677.88;1762943;80;21144;-80
2021/06/21 08:18:04;;;;;;;17.87;3.30;;;;;;;29.73;48.21;99676.25;1760832;79;21077;-79
2021/06/21 08:20:31;;;;;;;15.45;2.55;;;;;;;29.77;48.79;99679.73;1755603;79;21069;-81
2021/06/21 08:22:57;;;;;;;;;;;;;;;29.86;48.77;99688.87;1782084;79;21115;-81
2021/06/21 08:25:23;;;;;;;9.83;2.43;;;;;;;29.89;48.78;99684.20;1761969;79;20561;-80
2021/06/21 08:27:49;;;;;;;17.73;2.73;;;;;;;29.92;48.91;99680.89;1746531;79;20882;-81
2021/06/21 08:30:15;;;;;;;18.73;3.17;;;;;;;29.92;48.58;99678.73;1755418;80;21067;-82
2021/06/21 08:32:41;;;;;;;14.95;3.10;;;;;;;29.97;48.36;99677.28;1753042;81;21102;-82
2021/06/21 08:35:09;;;;;;;12.03;2.75;;;;;;;30.00;48.51;99669.34;1762291;81;21283;-78
2021/06/21 08:37:35;;;;;;;12.43;3.20;;;;;;;30.16;48.58;99674.50;1719901;81;21201;-83
2021/06/21 08:40:04;;;;;;;16.20;2.70;;;;;;;30.15;48.71;99664.73;1767154;78;20993;-81
2021/06/21 08:42:30;;;;;;;13.62;2.80;;;;;;;30.17;48.44;99661.95;1758263;79;21086;-81
2021/06/21 08:44:57;;;;;;;18.17;2.90;;;;;;;30.08;47.87;99661.84;1754915;80;20983;-85
2021/06/21 08:47:23;;;;;;;10.13;2.52;;;;;;;30.13;47.84;99658.76;1753258;81;21968;-84
2021/06/21 08:49:49;;;;;;;10.50;2.60;;;;;;;30.20;47.07;99652.38;1762451;79;21299;-84
2021/06/21 08:52:17;;;;;;;21.47;2.67;;;;;;;30.10;46.27;99643.05;1757878;79;20870;-84
2021/06/21 08:54:43;;;;;;;13.43;2.58;;;;;;;30.15;45.83;99647.03;1766837;79;21149;-85
2021/06/21 08:57:10;;;;;;;15.80;2.67;;;;;;;30.04;45.95;99655.37;1758635;78;21995;-83
2021/06/21 08:59:39;;;;;;;12.13;2.60;;;;;;;30.12;45.91;99655.80;1805696;78;21407;-83
2021/06/21 09:02:05;;;;;;;13.50;2.47;;;;;;;30.14;46.45;99656.30;1817984;78;20985;-83
2021/06/21 09:04:31;;;;;;;12.87;2.40;;;;;;;30.16;46.22;99652.71;1821043;78;21063;-85
2021/06/21 09:07:17;;;;;;;7.27;2.13;;;;;;;30.20;45.63;99653.17;1775807;78;21044;-89
2021/06/21 09:09:42;;;;;;;12.60;2.45;;;;;;;30.16;45.87;99647.27;1820244;78;21146;-82
2021/06/21 09:12:09;;;;;;;12.37;2.40;;;;;;;30.20;46.04;99646.93;1812941;76;21294;-82
2021/06/21 09:14:36;;;;;;;;;;;;;;;30.20;45.19;99647.73;1779522;80;20982;-82
2021/06/21 09:17:08;;;;;;;;;;;;;;;30.20;44.35;99645.57;1774717;80;20166;-83
2021/06/21 09:19:58;;;;;;;10.80;2.10;;;;;;;30.28;44.47;99646.23;1787710;77;20722;-82
2021/06/21 09:22:39;;;;;;;10.78;2.02;;;;;;;30.29;44.14;99646.50;1809658;77;21073;-83
2021/06/21 09:25:22;;;;;;;11.33;1.90;;;;;;;30.42;42.71;99645.75;1802771;77;22126;-83
2021/06/21 09:28:00;;;;;;;16.77;2.10;;;;;;;30.46;43.23;99647.88;1806381;77;21017;-84
2021/06/21 09:30:26;;;;;;;7.17;2.02;;;;;;;30.57;43.17;99639.74;1829467;77;20991;-83
2021/06/21 09:32:55;;;;;;;10.03;2.30;;;;;;;30.63;43.11;99635.81;1804056;77;20872;-85
2021/06/21 09:35:37;;;;;;;10.75;1.98;;;;;;;30.64;43.51;99643.42;1763174;77;21023;-81
2021/06/21 09:38:15;;;;;;;8.90;2.17;;;;;;;30.67;42.50;99638.73;1765438;78;21135;-84
2021/06/21 09:40:52;;;;;;;11.03;2.47;;;;;;;30.75;42.95;99632.02;1768665;79;21383;-84
2021/06/21 09:43:33;;;;;;;6.35;1.80;;;;;;;30.77;42.26;99639.33;1774867;80;21089;-86
2021/06/21 09:46:15;;;;;;;8.90;1.90;;;;;;;30.82;41.93;99637.05;1773608;80;21019;-88
2021/06/21 09:48:45;;;;;;;7.90;1.90;;;;;;;30.81;41.59;99640.09;1804297;78;21518;-87
2021/06/21 09:51:35;;;;;;;12.85;2.25;;;;;;;30.86;41.41;99637.24;1814868;78;21335;-81
2021/06/21 09:54:11;;;;;;;10.35;2.20;;;;;;;30.89;41.55;99625.73;1777222;79;21046;-84
2021/06/21 09:56:45;;;;;;;9.43;1.98;;;;;;;30.95;41.00;99625.88;1765030;78;21329;-80
2021/06/21 09:59:23;;;;;;;9.53;2.17;;;;;;;30.99;40.30;99626.92;1765386;79;21134;-83
2021/06/21 10:02:14;;;;;;;9.13;2.00;;;;;;;31.08;40.62;99619.63;1758052;79;21571;-83
2021/06/21 10:04:41;;;;;;;11.75;2.17;;;;;;;31.12;40.88;99622.00;1753373;79;20990;-81
2021/06/21 10:07:34;;;;;;;11.65;1.95;;;;;;;31.02;40.60;99624.94;1757354;79;21267;-82
2021/06/21 10:10:08;;;;;;;10.70;1.82;;;;;;;31.17;40.56;99627.08;1761280;79;21019;-82
2021/06/21 10:12:33;;;;;;;7.92;2.20;;;;;;;31.12;40.41;99625.27;1770205;79;21285;-82
2021/06/21 10:15:00;;;;;;;9.70;2.20;;;;;;;31.11;40.35;99623.11;1758768;79;36003;-84
2021/06/21 10:17:26;;;;;;;14.33;2.17;;;;;;;31.07;40.36;99615.28;1751889;79;21229;-82
2021/06/21 10:19:55;;;;;;;8.70;2.20;;;;;;;31.17;40.81;99610.71;1772764;79;20985;-81
2021/06/21 10:22:24;;;;;;;12.47;2.12;;;;;;;31.16;39.98;99603.09;1779819;78;21771;-82
2021/06/21 10:24:51;;;;;;;8.28;1.77;;;;;;;31.12;39.17;99607.00;1746249;79;21084;-82
2021/06/21 10:27:20;;;;;;;10.35;2.20;;;;;;;31.26;39.47;99600.68;1756912;79;21517;-83
2021/06/21 10:29:46;;;;;;;7.17;1.82;;;;;;;31.31;38.86;99591.83;1762362;78;21243;-82
2021/06/21 10:32:11;;;;;;;6.23;2.03;;;;;;;31.43;39.33;99598.12;1757398;80;20861;-82
2021/06/21 10:34:38;;;;;;;8.17;1.87;;;;;;;31.35;39.11;99596.11;1750208;77;21500;-80
2021/06/21 10:37:14;;;;;;;11.73;1.90;;;;;;;31.31;38.38;99590.47;1744165;80;21202;-82
2021/06/21 10:39:47;;;;;;;6.25;1.85;;;;;;;31.37;38.83;99588.44;1759825;79;21349;-83
2021/06/21 10:42:26;;;;;;;8.68;1.87;;;;;;;31.41;38.82;99592.14;1757859;79;21231;-82
2021/06/21 10:44:58;;;;;;;11.12;2.30;;;;;;;31.54;38.87;99584.23;1760523;79;21013;-85
2021/06/21 10:47:40;;;;;;;12.43;1.90;;;;;;;31.56;38.62;99582.02;1754830;79;21009;-83
2021/06/21 10:50:09;;;;;;;6.90;2.00;;;;;;;31.59;37.73;99584.13;1746427;79;21036;-85
2021/06/21 10:52:42;;;;;;;11.08;2.30;;;;;;;31.63;37.58;99579.64;1746463;79;21075;-84
2021/06/21 10:55:33;;;;;;;7.53;1.80;;;;;;;31.59;37.40;99585.50;1724197;81;21082;-81
2021/06/21 10:58:27;;;;;;;9.40;1.90;;;;;;;31.74;37.11;99586.45;1721764;81;21036;-81
2021/06/21 11:00:54;;;;;;;9.58;2.40;;;;;;;31.89;36.88;99587.20;1729692;81;21107;-81
2021/06/21 11:03:34;;;;;;;8.65;1.80;;;;;;;31.95;36.14;99579.13;1741946;77;21058;-80
2021/06/21 11:06:10;;;;;;;9.38;2.02;;;;;;;32.03;36.82;99576.41;1773896;80;21062;-80
2021/06/21 11:08:46;;;;;;;6.92;1.90;;;;;;;32.01;36.74;99579.23;1754817;78;22064;-80
2021/06/21 11:11:42;;;;;;;5.53;1.70;;;;;;;32.14;36.64;99576.98;1753347;77;21268;-81
2021/06/21 11:14:20;;;;;;;5.75;1.90;;;;;;;32.07;36.24;99579.34;1730889;81;20974;-82
2021/06/21 11:16:47;;;;;;;7.08;1.85;;;;;;;32.20;36.73;99583.91;1752848;79;21046;-81
2021/06/21 11:19:25;;;;;;;12.10;2.08;;;;;;;32.25;36.81;99575.34;1773771;79;20988;-81
2021/06/21 11:22:03;;;;;;;8.10;2.05;;;;;;;32.33;36.76;99569.09;1745988;79;21352;-81
2021/06/21 11:24:48;;;;;;;4.95;1.50;;;;;;;32.36;36.35;99563.00;1753797;79;21073;-85
2021/06/21 11:27:25;;;;;;;8.30;1.57;;;;;;;32.45;36.45;99552.90;1761904;79;21068;-84
2021/06/21 11:29:54;;;;;;;;;;;;;;;32.48;36.25;99564.56;1770329;79;21394;-81
2021/06/21 11:32:20;;;;;;;10.25;1.98;;;;;;;32.47;36.28;99569.77;1765160;79;20292;-81
2021/06/21 11:34:55;;;;;;;7.93;1.80;;;;;;;32.46;35.93;99570.92;1758499;79;21128;-80
2021/06/21 11:37:40;;;;;;;8.68;2.35;;;;;;;32.42;35.73;99564.46;1755520;79;21360;-78
2021/06/21 11:40:26;;;;;;;8.08;2.00;;;;;;;32.43;36.03;99565.27;1754984;79;21041;-80
2021/06/21 11:43:06;;;;;;;10.93;1.82;;;;;;;32.54;35.92;99560.56;1768488;79;21282;-80